createdAt,value
2019-03-21T00:02:20.783Z,8.77
2019-03-21T00:04:53.768Z,8.75
2019-03-21T00:07:23.733Z,8.75
2019-03-21T00:10:36.251Z,8.73
2019-03-21T00:13:06.019Z,8.75
2019-03-21T00:15:39.937Z,8.76
2019-03-21T00:18:11.812Z,8.76
2019-03-21T00:20:42.137Z,8.75
2019-03-21T00:23:12.264Z,8.76
2019-03-21T00:25:42.075Z,8.76
2019-03-21T00:28:11.769Z,8.75
2019-03-21T00:30:41.860Z,8.77
2019-03-21T00:33:11.605Z,8.75
2019-03-21T00:35:41.682Z,8.75
2019-03-21T00:38:11.380Z,8.74
2019-03-21T00:40:43.969Z,8.76
2019-03-21T00:43:14.537Z,8.76
2019-03-21T00:45:44.204Z,8.76
2019-03-21T00:48:15.779Z,8.76
2019-03-21T00:50:45.414Z,8.75
2019-03-21T00:53:15.443Z,8.76
2019-03-21T00:55:46.323Z,8.75
2019-03-21T00:58:16.834Z,8.75
2019-03-21T01:00:49.627Z,8.73
2019-03-21T01:03:19.929Z,8.74
2019-03-21T01:05:50.479Z,8.74
2019-03-21T01:08:20.390Z,8.73
2019-03-21T01:10:51.522Z,8.73
2019-03-21T01:13:21.556Z,8.74
2019-03-21T01:15:51.551Z,8.74
2019-03-21T01:18:22.068Z,8.75
2019-03-21T01:20:51.969Z,8.73
2019-03-21T01:23:21.629Z,8.73
2019-03-21T01:25:52.682Z,8.74
2019-03-21T01:28:22.312Z,8.74
2019-03-21T01:30:52.070Z,8.74
2019-03-21T01:33:22.178Z,8.74
2019-03-21T01:35:52.271Z,8.75
2019-03-21T01:38:22.201Z,8.76
2019-03-21T01:40:52.242Z,8.77
2019-03-21T01:43:22.222Z,8.77
2019-03-21T01:45:52.104Z,8.76
2019-03-21T01:48:22.323Z,8.76
2019-03-21T01:50:52.272Z,8.75
2019-03-21T01:53:21.982Z,8.76
2019-03-21T01:55:51.675Z,8.77
2019-03-21T01:58:21.918Z,8.77
2019-03-21T02:00:51.981Z,8.77
2019-03-21T02:03:21.814Z,8.77
2019-03-21T02:05:51.524Z,8.78
2019-03-21T02:08:21.279Z,8.78
2019-03-21T02:10:51.163Z,8.78
2019-03-21T02:13:20.869Z,8.77
2019-03-21T02:15:50.916Z,8.79
2019-03-21T02:18:20.615Z,8.78
2019-03-21T02:20:50.173Z,8.79
2019-03-21T02:23:20.107Z,8.78
2019-03-21T02:25:49.787Z,8.77
2019-03-21T02:28:19.614Z,8.77
2019-03-21T02:30:49.962Z,8.77
2019-03-21T02:33:22.949Z,8.77
2019-03-21T02:35:53.941Z,8.77
2019-03-21T02:38:23.613Z,8.76
2019-03-21T02:40:53.437Z,8.75
2019-03-21T02:43:23.186Z,8.74
2019-03-21T02:45:53.134Z,8.74
2019-03-21T02:48:23.877Z,8.75
2019-03-21T02:50:54.293Z,8.74
2019-03-21T02:53:23.806Z,8.73
2019-03-21T02:55:54.670Z,8.73
2019-03-21T02:58:24.385Z,8.73
2019-03-21T03:01:16.344Z,8.73
2019-03-21T03:03:46.406Z,8.71
2019-03-21T03:06:16.048Z,8.71
2019-03-21T03:08:45.975Z,8.71
2019-03-21T03:11:16.239Z,8.72
2019-03-21T03:13:47.665Z,8.72
2019-03-21T03:16:17.273Z,8.71
2019-03-21T03:18:46.884Z,8.72
2019-03-21T03:21:17.325Z,8.71
2019-03-21T03:23:46.843Z,8.73
2019-03-21T03:26:16.480Z,8.73
2019-03-21T03:28:46.200Z,8.72
2019-03-21T03:31:15.923Z,8.72
2019-03-21T03:33:45.881Z,8.72
2019-03-21T03:36:16.124Z,8.72
2019-03-21T03:38:46.162Z,8.73
2019-03-21T03:41:16.248Z,8.72
2019-03-21T03:43:46.408Z,8.72
2019-03-21T03:46:16.110Z,8.73
2019-03-21T03:48:47.406Z,8.72
2019-03-21T03:51:17.224Z,8.73
2019-03-21T03:53:48.635Z,8.74
2019-03-21T03:56:18.661Z,8.74
2019-03-21T03:58:50.152Z,8.73
2019-03-21T04:01:21.147Z,8.74
2019-03-21T04:03:51.045Z,8.74
2019-03-21T04:06:20.758Z,8.74
2019-03-21T04:08:50.369Z,8.72
2019-03-21T04:11:22.815Z,8.72
2019-03-21T04:13:52.887Z,8.72
2019-03-21T04:16:22.819Z,8.71
2019-03-21T04:18:52.286Z,8.71
2019-03-21T04:21:22.662Z,8.69
2019-03-21T04:23:52.761Z,8.70
2019-03-21T04:26:26.373Z,8.68
2019-03-21T04:28:59.348Z,8.68
2019-03-21T04:31:28.981Z,8.67
2019-03-21T04:34:03.112Z,8.68
2019-03-21T04:36:34.858Z,8.67
2019-03-21T04:39:06.650Z,8.66
2019-03-21T04:41:36.593Z,8.65
2019-03-21T04:44:06.643Z,8.66
2019-03-21T04:46:38.058Z,8.66
2019-03-21T04:49:07.757Z,8.66
2019-03-21T04:51:37.670Z,8.65
2019-03-21T04:54:07.577Z,8.65
2019-03-21T04:56:37.382Z,8.63
2019-03-21T04:59:09.042Z,8.62
2019-03-21T05:01:38.637Z,8.63
2019-03-21T05:04:08.261Z,8.63
2019-03-21T05:06:39.710Z,8.62
2019-03-21T05:09:12.991Z,8.61
2019-03-21T05:11:43.060Z,8.60
2019-03-21T05:14:12.564Z,8.60
2019-03-21T05:16:42.492Z,8.59
2019-03-21T05:19:15.272Z,8.59
2019-03-21T05:21:45.049Z,8.58
2019-03-21T05:24:14.898Z,8.57
2019-03-21T05:26:44.823Z,8.57
2019-03-21T05:29:15.773Z,8.56
2019-03-21T05:31:45.525Z,8.55
2019-03-21T05:34:15.362Z,8.55
2019-03-21T05:37:06.388Z,8.55
2019-03-21T05:39:35.895Z,8.53
2019-03-21T05:42:09.958Z,8.52
2019-03-21T05:45:07.010Z,8.51
2019-03-21T05:47:36.741Z,8.50
2019-03-21T05:50:07.987Z,8.50
2019-03-21T05:52:37.510Z,8.48
2019-03-21T05:55:08.244Z,8.48
2019-03-21T05:57:38.045Z,8.48
2019-03-21T06:00:14.462Z,8.47
2019-03-21T06:02:44.164Z,8.46
2019-03-21T06:05:14.094Z,8.47
2019-03-21T06:07:47.159Z,8.47
2019-03-21T06:10:17.675Z,8.48
2019-03-21T06:12:47.527Z,8.48
2019-03-21T06:15:20.553Z,8.49
2019-03-21T06:17:57.123Z,8.50
2019-03-21T06:21:02.068Z,8.50
2019-03-21T06:23:51.186Z,8.51
2019-03-21T06:26:57.292Z,8.52
2019-03-21T06:29:27.265Z,8.52
2019-03-21T06:31:56.742Z,8.54
2019-03-21T06:34:26.466Z,8.55
2019-03-21T06:36:56.457Z,8.56
2019-03-21T06:39:26.628Z,8.57
2019-03-21T06:41:56.373Z,8.57
2019-03-21T06:44:26.224Z,8.59
2019-03-21T06:46:56.797Z,8.59
2019-03-21T06:49:26.198Z,8.61
2019-03-21T06:51:55.719Z,8.63
2019-03-21T06:54:25.158Z,8.64
2019-03-21T06:56:54.899Z,8.65
2019-03-21T06:59:24.279Z,8.67
2019-03-21T07:01:53.747Z,8.68
2019-03-21T07:04:23.205Z,8.69
2019-03-21T07:06:53.286Z,8.69
2019-03-21T07:09:23.048Z,8.70
2019-03-21T07:11:52.537Z,8.72
2019-03-21T07:14:22.243Z,8.72
2019-03-21T07:17:00.048Z,8.73
2019-03-21T07:19:23.506Z,8.74
2019-03-21T07:21:53.589Z,8.75
2019-03-21T07:24:23.367Z,8.77
2019-03-21T07:26:52.877Z,8.78
2019-03-21T07:29:22.878Z,8.80
2019-03-21T07:31:52.330Z,8.79
2019-03-21T07:34:21.965Z,8.79
2019-03-21T07:36:52.867Z,8.78
2019-03-21T07:39:25.537Z,8.79
2019-03-21T07:41:55.267Z,8.78
2019-03-21T07:44:25.379Z,8.79
2019-03-21T07:46:55.290Z,8.78
2019-03-21T07:49:24.726Z,8.75
2019-03-21T07:51:54.159Z,8.73
2019-03-21T07:54:24.104Z,8.73
2019-03-21T07:56:54.948Z,8.74
2019-03-21T07:59:25.680Z,8.75
2019-03-21T08:01:58.390Z,8.74
2019-03-21T08:04:27.932Z,8.75
2019-03-21T08:06:57.652Z,8.76
2019-03-21T08:09:27.601Z,8.75
2019-03-21T08:11:57.040Z,8.76
2019-03-21T08:14:26.671Z,8.75
2019-03-21T08:16:56.274Z,8.74
2019-03-21T08:19:25.742Z,8.74
2019-03-21T08:21:55.768Z,8.74
2019-03-21T08:24:25.298Z,8.76
2019-03-21T08:26:55.038Z,8.78
2019-03-21T08:29:25.044Z,8.78
2019-03-21T08:31:54.526Z,8.76
2019-03-21T08:34:24.335Z,8.73
2019-03-21T08:36:56.064Z,8.70
2019-03-21T08:39:26.397Z,8.70
2019-03-21T08:41:56.255Z,8.68
2019-03-21T08:44:26.854Z,8.66
2019-03-21T08:46:56.575Z,8.64
2019-03-21T08:49:26.307Z,8.61
2019-03-21T08:51:55.911Z,8.62
2019-03-21T08:54:26.613Z,8.62
2019-03-21T08:56:56.086Z,8.61
2019-03-21T08:59:25.929Z,8.60
2019-03-21T09:01:55.834Z,8.59
2019-03-21T09:04:25.304Z,8.60
2019-03-21T09:06:55.172Z,8.60
2019-03-21T09:09:24.695Z,8.59
2019-03-21T09:11:54.367Z,8.58
2019-03-21T09:14:24.116Z,8.57
2019-03-21T09:16:54.401Z,8.58
2019-03-21T09:19:24.218Z,8.59
2019-03-21T09:21:54.311Z,8.61
2019-03-21T09:24:31.614Z,8.63
2019-03-21T09:27:01.561Z,8.64
2019-03-21T09:29:31.991Z,8.67
2019-03-21T09:32:01.789Z,8.69
2019-03-21T09:34:31.191Z,8.71
2019-03-21T09:37:00.577Z,8.73
2019-03-21T09:39:30.036Z,8.75
2019-03-21T09:41:59.854Z,8.75
2019-03-21T09:44:29.616Z,8.77
2019-03-21T09:46:59.936Z,8.82
2019-03-21T09:49:30.041Z,8.88
2019-03-21T09:51:59.806Z,8.94
2019-03-21T09:54:34.403Z,8.97
2019-03-21T09:57:04.311Z,8.97
2019-03-21T09:59:33.949Z,8.97
2019-03-21T10:02:05.864Z,9.00
2019-03-21T10:04:36.467Z,9.03
2019-03-21T10:07:06.495Z,9.04
2019-03-21T10:09:36.616Z,9.06
2019-03-21T10:12:27.023Z,9.10
2019-03-21T10:14:56.611Z,9.13
2019-03-21T10:17:26.748Z,9.20
2019-03-21T10:19:56.613Z,9.26
2019-03-21T10:22:26.417Z,9.31
2019-03-21T10:24:58.727Z,9.35
2019-03-21T10:27:28.668Z,9.38
2019-03-21T10:29:58.407Z,9.41
2019-03-21T10:32:27.836Z,9.47
2019-03-21T10:34:58.772Z,9.52
2019-03-21T10:37:28.459Z,9.56
2019-03-21T10:39:58.116Z,9.59
2019-03-21T10:42:27.636Z,9.63
2019-03-21T10:45:00.629Z,9.63
2019-03-21T10:47:30.394Z,9.64
2019-03-21T10:50:00.458Z,9.70
2019-03-21T10:52:30.157Z,9.73
2019-03-21T10:55:02.653Z,9.76
2019-03-21T10:57:32.078Z,9.76
2019-03-21T11:00:02.284Z,9.79
2019-03-21T11:02:32.519Z,9.85
2019-03-21T11:05:05.959Z,9.89
2019-03-21T11:07:35.957Z,9.80
2019-03-21T11:10:06.318Z,10.01
2019-03-21T11:12:36.174Z,10.06
2019-03-21T11:15:06.159Z,10.12
2019-03-21T11:17:35.917Z,10.16
2019-03-21T11:20:06.562Z,10.23
2019-03-21T11:22:36.260Z,10.29
2019-03-21T11:25:06.969Z,10.34
2019-03-21T11:27:37.470Z,10.39
2019-03-21T11:30:15.608Z,10.45
2019-03-21T11:32:38.705Z,10.52
2019-03-21T11:35:08.299Z,10.58
2019-03-21T11:37:37.688Z,10.63
2019-03-21T11:40:08.908Z,10.65
2019-03-21T11:42:41.758Z,10.67
2019-03-21T11:45:11.710Z,10.73
2019-03-21T11:50:17.181Z,10.76
2019-03-21T11:52:47.023Z,10.80
2019-03-21T11:55:20.578Z,10.80
2019-03-21T11:57:50.446Z,10.82
2019-03-21T12:00:20.159Z,10.63
2019-03-21T12:02:51.089Z,10.89
2019-03-21T12:05:23.771Z,10.92
2019-03-21T12:07:55.226Z,10.95
2019-03-21T12:10:25.352Z,10.96
2019-03-21T12:12:54.884Z,10.97
2019-03-21T12:15:24.855Z,10.97
2019-03-21T12:17:54.746Z,10.98
2019-03-21T12:20:32.378Z,10.99
2019-03-21T12:23:01.965Z,11.03
2019-03-21T12:25:31.815Z,11.06
2019-03-21T12:28:01.795Z,11.07
2019-03-21T12:30:37.020Z,11.07
2019-03-21T12:33:07.407Z,11.10
2019-03-21T12:35:37.727Z,11.15
2019-03-21T12:38:10.278Z,11.18
2019-03-21T12:40:39.884Z,11.23
2019-03-21T12:43:10.348Z,11.29
2019-03-21T12:45:45.317Z,11.32
2019-03-21T12:48:19.450Z,11.36
2019-03-21T12:50:49.588Z,11.37
2019-03-21T12:53:23.684Z,11.40
2019-03-21T12:56:49.130Z,11.43
2019-03-21T12:59:08.556Z,11.47
2019-03-21T13:01:41.265Z,11.51
2019-03-21T13:04:17.626Z,11.52
2019-03-21T13:06:47.614Z,11.60
2019-03-21T13:09:53.166Z,11.71
2019-03-21T13:13:21.702Z,11.76
2019-03-21T13:16:18.549Z,11.89
2019-03-21T13:19:32.559Z,11.97
2019-03-21T13:22:27.775Z,12.01
2019-03-21T13:25:03.940Z,12.01
2019-03-21T13:27:44.428Z,11.96
2019-03-21T13:30:16.160Z,11.95
2019-03-21T13:32:47.176Z,11.94
2019-03-21T13:35:17.189Z,11.91
2019-03-21T13:37:47.013Z,11.87
2019-03-21T13:40:16.984Z,11.82
2019-03-21T13:42:46.807Z,11.78
2019-03-21T13:45:16.344Z,11.77
2019-03-21T13:47:46.072Z,11.76
2019-03-21T13:50:15.872Z,11.77
2019-03-21T13:52:45.782Z,11.74
2019-03-21T13:55:15.707Z,11.73
2019-03-21T13:57:45.261Z,11.71
2019-03-21T14:00:21.062Z,11.68
2019-03-21T14:02:51.401Z,11.64
2019-03-21T14:05:27.021Z,11.60
2019-03-21T14:08:08.667Z,11.61
2019-03-21T14:10:38.587Z,11.63
2019-03-21T14:13:27.933Z,11.61
2019-03-21T14:15:58.074Z,11.63
2019-03-21T14:18:28.166Z,11.65
2019-03-21T14:21:01.989Z,11.69
2019-03-21T14:23:42.696Z,11.69
2019-03-21T14:26:03.162Z,11.69
2019-03-21T14:28:33.686Z,11.66
2019-03-21T14:31:21.014Z,11.69
2019-03-21T14:33:50.702Z,11.72
2019-03-21T14:36:20.533Z,11.68
2019-03-21T14:38:50.811Z,11.72
2019-03-21T14:41:20.490Z,11.79
2019-03-21T14:43:50.281Z,11.80
2019-03-21T14:46:20.025Z,11.77
2019-03-21T14:48:49.708Z,11.71
2019-03-21T14:51:19.402Z,11.69
2019-03-21T14:53:49.292Z,11.66
2019-03-21T14:56:19.162Z,11.59
2019-03-21T14:58:48.741Z,11.54
2019-03-21T15:01:18.654Z,11.50
2019-03-21T15:03:48.317Z,11.49
2019-03-21T15:06:18.072Z,11.45
2019-03-21T15:08:47.842Z,11.41
2019-03-21T15:11:17.807Z,11.38
2019-03-21T15:13:47.785Z,11.36
2019-03-21T15:16:17.199Z,11.37
2019-03-21T15:18:47.638Z,11.35
2019-03-21T15:21:17.495Z,11.31
2019-03-21T15:23:58.561Z,11.26
2019-03-21T15:26:18.499Z,11.21
2019-03-21T15:28:47.919Z,11.19
2019-03-21T15:31:17.439Z,11.14
2019-03-21T15:33:46.783Z,11.09
2019-03-21T15:36:16.231Z,11.05
2019-03-21T15:38:46.437Z,11.01
2019-03-21T15:41:16.964Z,10.98
2019-03-21T15:43:47.329Z,10.96
2019-03-21T15:46:16.793Z,10.95
2019-03-21T15:48:46.505Z,10.93
2019-03-21T15:51:16.534Z,10.92
2019-03-21T15:53:54.521Z,10.92
2019-03-21T15:56:17.788Z,10.94
2019-03-21T15:58:47.607Z,10.92
2019-03-21T16:01:18.914Z,10.89
2019-03-21T16:03:49.408Z,10.87
2019-03-21T16:06:19.173Z,10.86
2019-03-21T16:08:48.627Z,10.85
2019-03-21T16:11:18.416Z,10.81
2019-03-21T16:13:48.599Z,10.80
2019-03-21T16:16:18.275Z,10.77
2019-03-21T16:18:48.181Z,10.74
2019-03-21T16:21:18.962Z,10.73
2019-03-21T16:23:48.686Z,10.71
2019-03-21T16:26:18.293Z,10.69
2019-03-21T16:28:48.085Z,10.68
2019-03-21T16:31:17.778Z,10.65
2019-03-21T16:33:47.242Z,10.65
2019-03-21T16:36:16.930Z,10.63
2019-03-21T16:38:46.877Z,10.60
2019-03-21T16:41:19.072Z,10.58
2019-03-21T16:43:48.457Z,10.55
2019-03-21T16:46:18.194Z,10.55
2019-03-21T16:48:47.750Z,10.54
2019-03-21T16:51:17.993Z,10.53
2019-03-21T16:53:47.442Z,10.52
2019-03-21T16:56:17.386Z,10.50
2019-03-21T16:58:47.106Z,10.48
2019-03-21T17:01:16.808Z,10.47
2019-03-21T17:03:46.607Z,10.44
2019-03-21T17:06:19.156Z,10.42
2019-03-21T17:08:48.848Z,10.42
2019-03-21T17:11:21.024Z,10.39
2019-03-21T17:13:49.932Z,10.36
2019-03-21T17:16:20.295Z,10.34
2019-03-21T17:18:50.073Z,10.31
2019-03-21T17:21:19.729Z,10.30
2019-03-21T17:23:49.587Z,10.29
2019-03-21T17:26:19.535Z,10.27
2019-03-21T17:28:49.684Z,10.27
2019-03-21T17:31:19.915Z,10.26
2019-03-21T17:33:49.671Z,10.23
2019-03-21T17:36:20.795Z,10.22
2019-03-21T17:38:50.810Z,10.20
2019-03-21T17:41:20.893Z,10.18
2019-03-21T17:43:50.600Z,10.19
2019-03-21T17:46:20.521Z,10.19
2019-03-21T17:48:50.339Z,10.17
2019-03-21T17:51:19.968Z,10.15
2019-03-21T17:53:49.801Z,10.15
2019-03-21T17:56:19.578Z,10.14
2019-03-21T17:58:49.184Z,10.11
2019-03-21T18:01:19.113Z,10.09
2019-03-21T18:03:49.669Z,10.08
2019-03-21T18:06:19.446Z,10.05
2019-03-21T18:08:49.157Z,10.04
2019-03-21T18:11:19.009Z,10.03
2019-03-21T18:13:51.897Z,10.02
2019-03-21T18:16:21.694Z,10.01
2019-03-21T18:18:51.544Z,9.99
2019-03-21T18:21:22.268Z,9.98
2019-03-21T18:23:52.099Z,9.96
2019-03-21T18:26:22.044Z,9.95
2019-03-21T18:28:51.872Z,9.96
2019-03-21T18:31:21.763Z,9.94
2019-03-21T18:33:51.396Z,9.94
2019-03-21T18:36:21.402Z,9.90
2019-03-21T18:38:58.728Z,9.91
2019-03-21T18:41:22.595Z,9.89
2019-03-21T18:43:52.133Z,9.89
2019-03-21T18:46:21.960Z,9.88
2019-03-21T18:48:52.024Z,9.86
2019-03-21T18:51:22.008Z,9.84
2019-03-21T18:53:51.894Z,9.84
2019-03-21T18:56:21.947Z,9.84
2019-03-21T18:58:51.955Z,9.83
2019-03-21T19:01:24.757Z,9.82
2019-03-21T19:03:56.872Z,9.80
2019-03-21T19:06:29.516Z,9.78
2019-03-21T19:08:59.441Z,9.78
2019-03-21T19:11:29.053Z,9.77
2019-03-21T19:16:39.998Z,9.80
2019-03-21T19:19:09.499Z,9.76
2019-03-21T19:21:39.015Z,9.76
2019-03-21T19:24:11.407Z,9.73
2019-03-21T19:26:40.610Z,9.73
2019-03-21T19:29:10.344Z,9.71
2019-03-21T19:31:40.325Z,9.71
2019-03-21T19:34:10.377Z,9.71
2019-03-21T19:36:40.358Z,9.70
2019-03-21T19:39:10.815Z,9.70
2019-03-21T19:41:40.362Z,9.70
2019-03-21T19:44:10.007Z,9.68
2019-03-21T19:46:39.821Z,9.67
2019-03-21T19:49:09.605Z,9.66
2019-03-21T19:51:39.603Z,9.65
2019-03-21T19:54:09.065Z,9.65
2019-03-21T19:56:38.829Z,9.64
2019-03-21T19:59:08.636Z,9.64
2019-03-21T20:01:38.564Z,9.63
2019-03-21T20:04:08.482Z,9.46
2019-03-21T20:06:38.096Z,9.62
2019-03-21T20:09:08.421Z,9.61
2019-03-21T20:11:38.136Z,9.62
2019-03-21T20:14:08.016Z,9.59
2019-03-21T20:16:37.694Z,9.57
2019-03-21T20:19:07.478Z,9.57
2019-03-21T20:21:47.437Z,9.56
2019-03-21T20:24:08.391Z,9.55
2019-03-21T20:26:38.237Z,9.54
2019-03-21T20:29:09.373Z,9.53
2019-03-21T20:31:43.176Z,9.54
2019-03-21T20:34:13.018Z,9.53
2019-03-21T20:36:42.832Z,9.52
2019-03-21T20:39:12.471Z,9.50
2019-03-21T20:41:41.901Z,9.49
2019-03-21T20:44:15.404Z,9.45
2019-03-21T20:46:42.988Z,9.44
2019-03-21T20:49:12.922Z,9.41
2019-03-21T20:51:42.905Z,9.38
2019-03-21T20:54:12.895Z,9.33
2019-03-21T20:56:42.731Z,9.31
2019-03-21T20:59:12.512Z,9.30
2019-03-21T21:01:42.308Z,9.27
2019-03-21T21:04:12.036Z,9.24
2019-03-21T21:06:41.550Z,9.23
2019-03-21T21:09:11.398Z,9.21
2019-03-21T21:11:41.140Z,9.19
2019-03-21T21:14:11.610Z,9.17
2019-03-21T21:16:41.382Z,9.17
2019-03-21T21:19:11.401Z,9.15
2019-03-21T21:21:41.430Z,9.16
2019-03-21T21:24:11.249Z,9.14
2019-03-21T21:26:41.111Z,9.14
2019-03-21T21:29:11.023Z,9.13
2019-03-21T21:31:40.813Z,9.11
2019-03-21T21:34:45.305Z,9.09
2019-03-21T21:37:15.298Z,9.09
2019-03-21T21:39:45.021Z,9.07
2019-03-21T21:42:14.900Z,9.09
2019-03-21T21:44:44.667Z,9.07
2019-03-21T21:47:14.374Z,9.06
2019-03-21T21:49:43.881Z,9.05
2019-03-21T21:52:13.395Z,9.04
2019-03-21T21:54:42.994Z,9.02
2019-03-21T21:57:12.856Z,9.00
2019-03-21T21:59:42.268Z,9.01
2019-03-21T22:02:12.067Z,9.01
2019-03-21T22:04:41.859Z,9.01
2019-03-21T22:07:11.693Z,9.01
2019-03-21T22:09:41.485Z,8.99
2019-03-21T22:12:11.202Z,8.98
2019-03-21T22:14:40.934Z,8.97
2019-03-21T22:17:14.527Z,8.95
2019-03-21T22:19:47.281Z,8.95
2019-03-21T22:22:19.316Z,8.96
2019-03-21T22:24:48.921Z,8.93
2019-03-21T22:27:18.395Z,8.92
2019-03-21T22:29:47.929Z,8.93
2019-03-21T22:32:17.940Z,8.92
2019-03-21T22:34:47.448Z,8.91
2019-03-21T22:37:17.062Z,8.90
2019-03-21T22:39:50.211Z,8.90
2019-03-21T22:42:20.050Z,8.87
2019-03-21T22:44:49.868Z,8.89
2019-03-21T22:47:19.219Z,8.88
2019-03-21T22:49:49.161Z,8.85
2019-03-21T22:52:18.986Z,8.85
2019-03-21T22:54:48.925Z,8.83
2019-03-21T22:57:18.810Z,8.83
2019-03-21T22:59:48.403Z,8.84
2019-03-21T23:02:18.024Z,8.83
2019-03-21T23:04:47.716Z,8.82
2019-03-21T23:07:17.236Z,8.82
2019-03-21T23:09:47.155Z,8.81
2019-03-21T23:12:16.964Z,8.82
2019-03-21T23:14:46.382Z,8.80
2019-03-21T23:17:16.295Z,8.80
2019-03-21T23:19:45.746Z,8.78
2019-03-21T23:22:15.505Z,8.76
2019-03-21T23:24:45.323Z,8.74
2019-03-21T23:27:17.180Z,8.74
2019-03-21T23:29:46.786Z,8.73
2019-03-21T23:32:16.468Z,8.73
2019-03-21T23:34:46.081Z,8.73
2019-03-21T23:37:15.554Z,8.73
2019-03-21T23:39:44.931Z,8.74
2019-03-21T23:42:14.595Z,8.73
2019-03-21T23:44:44.335Z,8.76
2019-03-21T23:47:14.218Z,8.75
2019-03-21T23:49:44.579Z,8.72
2019-03-21T23:52:14.168Z,8.72
2019-03-21T23:54:44.299Z,8.72
2019-03-21T23:57:14.018Z,8.71
2019-03-21T23:59:46.713Z,8.70
